createdAt,value
2024-01-01T00:01:47.895Z,55.99
2024-01-01T00:04:16.482Z,56.03
2024-01-01T00:06:44.980Z,55.95
2024-01-01T00:09:13.339Z,56.03
2024-01-01T00:11:44.195Z,55.91
2024-01-01T00:14:15.761Z,55.88
2024-01-01T00:16:44.382Z,55.93
2024-01-01T00:19:13.996Z,55.76
2024-01-01T00:21:42.523Z,55.91
2024-01-01T00:24:10.848Z,55.68
2024-01-01T00:26:39.216Z,55.88
2024-01-01T00:29:09.015Z,55.68
2024-01-01T00:31:40.535Z,55.82
2024-01-01T00:34:09.120Z,55.78
2024-01-01T00:36:37.911Z,55.63
2024-01-01T00:39:06.283Z,55.53
2024-01-01T00:41:34.701Z,55.44
2024-01-01T00:44:03.388Z,55.51
2024-01-01T00:46:31.933Z,55.48
2024-01-01T00:49:02.304Z,55.46
2024-01-01T00:51:30.732Z,55.53
2024-01-01T00:53:59.254Z,55.41
2024-01-01T00:56:27.797Z,55.28
2024-01-01T00:58:56.161Z,55.53
2024-01-01T01:01:24.530Z,55.41
2024-01-01T01:03:52.981Z,55.23
2024-01-01T01:06:25.304Z,55.30
2024-01-01T01:08:54.962Z,55.34
2024-01-01T01:11:23.632Z,55.35
2024-01-01T01:13:52.197Z,55.19
2024-01-01T01:16:20.588Z,55.30
2024-01-01T01:18:49.606Z,55.36
2024-01-01T01:21:18.099Z,55.27
2024-01-01T01:23:48.005Z,55.31
2024-01-01T01:26:17.097Z,55.25
2024-01-01T01:28:45.496Z,55.31
2024-01-01T01:31:13.950Z,55.02
2024-01-01T01:33:42.368Z,55.16
2024-01-01T01:36:11.384Z,55.24
2024-01-01T01:38:39.943Z,55.16
2024-01-01T01:41:10.069Z,55.17
2024-01-01T01:43:37.533Z,55.06
2024-01-01T01:46:06.525Z,55.24
2024-01-01T01:48:35.285Z,55.11
2024-01-01T01:51:03.812Z,55.02
2024-01-01T01:53:32.844Z,55.14
2024-01-01T01:56:05.941Z,55.15
2024-01-01T01:58:36.487Z,55.08
2024-01-01T02:01:05.116Z,55.13
2024-01-01T02:03:33.647Z,55.12
2024-01-01T02:06:02.217Z,55.10
2024-01-01T02:08:30.911Z,55.12
2024-01-01T02:10:59.614Z,55.11
2024-01-01T02:13:30.280Z,55.19
2024-01-01T02:16:01.774Z,55.10
2024-01-01T02:18:30.404Z,55.29
2024-01-01T02:20:58.902Z,55.34
2024-01-01T02:23:29.232Z,55.22
2024-01-01T02:25:57.899Z,55.20
2024-01-01T02:28:26.649Z,55.20
2024-01-01T02:30:55.507Z,55.10
2024-01-01T02:33:23.990Z,55.16
2024-01-01T02:35:52.370Z,55.15
2024-01-01T02:38:20.856Z,55.25
2024-01-01T02:40:50.876Z,54.96
2024-01-01T02:43:19.787Z,55.07
2024-01-01T02:45:48.280Z,55.13
2024-01-01T02:48:16.806Z,55.20
2024-01-01T02:50:45.308Z,54.92
2024-01-01T02:53:14.041Z,55.03
2024-01-01T02:55:42.671Z,55.01
2024-01-01T02:58:12.918Z,55.03
2024-01-01T03:00:42.414Z,54.98
2024-01-01T03:03:10.992Z,54.84
2024-01-01T03:05:39.527Z,55.12
2024-01-01T03:08:10.614Z,54.91
2024-01-01T03:10:39.107Z,54.94
2024-01-01T03:13:07.525Z,55.01
2024-01-01T03:15:37.281Z,54.98
2024-01-01T03:18:06.724Z,55.42
2024-01-01T03:20:35.636Z,55.45
2024-01-01T03:23:04.019Z,55.43
2024-01-01T03:25:32.785Z,55.47
2024-01-01T03:28:01.203Z,55.19
2024-01-01T03:30:29.743Z,55.28
2024-01-01T03:32:59.787Z,55.27
2024-01-01T03:35:28.415Z,55.07
2024-01-01T03:37:56.940Z,54.97
2024-01-01T03:40:25.397Z,55.11
2024-01-01T03:42:53.842Z,55.12
2024-01-01T03:45:22.611Z,54.94
2024-01-01T03:47:51.081Z,54.94
2024-01-01T03:50:21.601Z,54.99
2024-01-01T03:52:50.158Z,54.99
2024-01-01T03:55:18.677Z,54.77
2024-01-01T03:57:47.465Z,54.86
2024-01-01T04:00:16.836Z,54.77
2024-01-01T04:02:47.403Z,54.89
2024-01-01T04:05:16.282Z,55.02
2024-01-01T04:07:46.350Z,55.25
2024-01-01T04:10:14.958Z,55.30
2024-01-01T04:12:43.243Z,55.16
2024-01-01T04:15:12.046Z,55.30
2024-01-01T04:17:40.898Z,55.11
2024-01-01T04:20:12.780Z,55.23
2024-01-01T04:22:43.304Z,55.46
2024-01-01T04:25:13.103Z,55.44
2024-01-01T04:27:41.686Z,55.26
2024-01-01T04:30:11.496Z,55.50
2024-01-01T04:32:40.219Z,55.30
2024-01-01T04:35:09.833Z,55.49
2024-01-01T04:37:38.392Z,55.28
2024-01-01T04:40:08.807Z,55.23
2024-01-01T04:42:38.587Z,55.22
2024-01-01T04:45:07.915Z,55.18
2024-01-01T04:47:36.370Z,55.22
2024-01-01T04:50:05.539Z,55.12
2024-01-01T04:52:34.005Z,54.87
2024-01-01T04:55:02.486Z,54.94
2024-01-01T04:57:33.987Z,54.66
2024-01-01T05:00:04.067Z,54.77
2024-01-01T05:02:32.670Z,54.60
2024-01-01T05:05:01.253Z,54.65
2024-01-01T05:07:29.680Z,54.51
2024-01-01T05:09:58.420Z,54.58
2024-01-01T05:12:26.842Z,54.49
2024-01-01T05:14:55.188Z,54.68
2024-01-01T05:17:26.229Z,54.82
2024-01-01T05:19:54.866Z,54.71
2024-01-01T05:22:23.370Z,54.61
2024-01-01T05:24:51.857Z,54.69
2024-01-01T05:27:20.318Z,55.02
2024-01-01T05:29:48.874Z,54.83
2024-01-01T05:32:17.820Z,54.88
2024-01-01T05:34:48.125Z,55.08
2024-01-01T05:37:16.627Z,55.14
2024-01-01T05:39:45.185Z,55.00
2024-01-01T05:42:13.908Z,55.14
2024-01-01T05:44:42.445Z,55.42
2024-01-01T05:47:10.907Z,55.28
2024-01-01T05:49:39.472Z,55.15
2024-01-01T05:52:09.548Z,55.22
2024-01-01T05:54:38.132Z,55.28
2024-01-01T05:57:07.029Z,55.38
2024-01-01T05:59:35.825Z,55.49
2024-01-01T06:02:04.761Z,55.41
2024-01-01T06:04:33.285Z,55.45
2024-01-01T06:07:01.864Z,55.29
2024-01-01T06:09:31.634Z,55.40
2024-01-01T06:12:00.039Z,55.28
2024-01-01T06:14:28.601Z,55.32
2024-01-01T06:16:58.617Z,55.57
2024-01-01T06:19:27.484Z,55.26
2024-01-01T06:21:55.899Z,55.27
2024-01-01T06:24:24.450Z,55.08
2024-01-01T06:26:54.465Z,55.23
2024-01-01T06:29:23.119Z,55.08
2024-01-01T06:31:51.690Z,55.01
2024-01-01T06:34:20.757Z,54.84
2024-01-01T06:36:49.171Z,54.74
2024-01-01T06:39:17.554Z,54.83
2024-01-01T06:41:46.028Z,54.68
2024-01-01T06:44:16.044Z,54.78
2024-01-01T06:46:44.724Z,54.53
2024-01-01T06:49:13.520Z,54.63
2024-01-01T06:51:42.008Z,54.64
2024-01-01T06:54:10.584Z,54.77
2024-01-01T06:56:42.756Z,54.61
2024-01-01T06:59:15.332Z,54.66
2024-01-01T07:01:44.544Z,54.99
2024-01-01T07:04:13.372Z,54.89
2024-01-01T07:06:43.850Z,54.64
2024-01-01T07:09:13.805Z,54.83
2024-01-01T07:11:42.205Z,54.80
2024-01-01T07:14:10.739Z,54.59
2024-01-01T07:16:40.964Z,54.40
2024-01-01T07:19:09.527Z,54.74
2024-01-01T07:21:37.969Z,54.58
2024-01-01T07:24:08.003Z,54.59
2024-01-01T07:26:36.426Z,54.50
2024-01-01T07:29:06.849Z,54.53
2024-01-01T07:31:36.923Z,54.43
2024-01-01T07:34:07.043Z,54.55
2024-01-01T07:36:35.492Z,54.43
2024-01-01T07:39:04.395Z,54.69
2024-01-01T07:41:32.996Z,54.48
2024-01-01T07:44:01.642Z,54.75
2024-01-01T07:46:30.143Z,54.51
2024-01-01T07:49:01.439Z,54.40
2024-01-01T07:51:31.301Z,54.58
2024-01-01T07:53:59.669Z,54.74
2024-01-01T07:56:29.814Z,54.42
2024-01-01T07:58:58.684Z,54.61
2024-01-01T08:01:27.564Z,54.59
2024-01-01T08:03:56.022Z,54.59
2024-01-01T08:06:24.704Z,54.41
2024-01-01T08:08:54.577Z,54.54
2024-01-01T08:11:22.980Z,54.67
2024-01-01T08:13:51.378Z,54.77
2024-01-01T08:16:20.673Z,54.97
2024-01-01T08:18:49.926Z,55.01
2024-01-01T08:21:18.435Z,54.96
2024-01-01T08:23:46.997Z,55.07
2024-01-01T08:26:17.289Z,55.01
2024-01-01T08:28:52.704Z,55.45
2024-01-01T08:31:22.101Z,55.32
2024-01-01T08:33:51.184Z,55.42
2024-01-01T08:36:21.310Z,55.20
2024-01-01T08:38:50.238Z,55.58
2024-01-01T08:41:20.433Z,55.39
2024-01-01T08:43:58.164Z,55.37
2024-01-01T08:46:28.045Z,55.33
2024-01-01T08:48:56.643Z,55.11
2024-01-01T08:51:25.073Z,55.13
2024-01-01T08:53:53.510Z,55.24
2024-01-01T08:56:23.677Z,55.20
2024-01-01T08:58:52.237Z,54.94
2024-01-01T09:01:20.830Z,55.06
2024-01-01T09:03:52.548Z,55.19
2024-01-01T09:06:21.233Z,55.05
2024-01-01T09:08:49.778Z,55.25
2024-01-01T09:11:18.358Z,55.07
2024-01-01T09:13:48.317Z,54.97
2024-01-01T09:16:16.713Z,54.73
2024-01-01T09:18:45.574Z,54.52
2024-01-01T09:21:18.312Z,54.24
2024-01-01T09:23:47.715Z,54.29
2024-01-01T09:26:16.305Z,54.11
2024-01-01T09:28:44.815Z,54.24
2024-01-01T09:31:14.717Z,54.24
2024-01-01T09:33:43.265Z,54.23
2024-01-01T09:36:14.990Z,54.36
2024-01-01T09:38:44.606Z,54.18
2024-01-01T09:41:14.093Z,54.17
2024-01-01T09:43:44.050Z,54.30
2024-01-01T09:46:15.600Z,54.66
2024-01-01T09:48:44.463Z,54.68
2024-01-01T09:51:12.906Z,54.78
2024-01-01T09:53:41.549Z,55.27
2024-01-01T09:56:10.074Z,55.43
2024-01-01T09:58:45.072Z,54.74
2024-01-01T10:01:18.184Z,54.79
2024-01-01T10:03:46.984Z,54.58
2024-01-01T10:06:15.910Z,54.28
2024-01-01T10:08:44.693Z,54.03
2024-01-01T10:11:20.562Z,52.07
2024-01-01T10:13:49.383Z,52.55
2024-01-01T10:16:27.962Z,52.26
2024-01-01T10:18:57.924Z,52.19
2024-01-01T10:21:31.296Z,51.79
2024-01-01T10:24:04.741Z,51.90
2024-01-01T10:26:41.262Z,51.40
2024-01-01T10:29:13.846Z,51.11
2024-01-01T10:31:49.504Z,49.86
2024-01-01T10:34:19.350Z,49.62
2024-01-01T10:36:47.756Z,49.39
2024-01-01T10:39:19.997Z,48.88
2024-01-01T10:41:50.864Z,47.87
2024-01-01T10:44:19.656Z,48.14
2024-01-01T10:46:49.664Z,48.12
2024-01-01T10:49:24.041Z,47.54
2024-01-01T10:52:10.542Z,47.51
2024-01-01T10:55:06.598Z,46.93
2024-01-01T10:58:18.360Z,46.98
2024-01-01T11:00:57.590Z,47.00
2024-01-01T11:03:27.763Z,46.40
2024-01-01T11:05:56.214Z,46.04
2024-01-01T11:08:29.429Z,45.52
2024-01-01T11:10:58.615Z,45.42
2024-01-01T11:13:56.284Z,45.42
2024-01-01T11:16:26.037Z,44.14
2024-01-01T11:18:56.359Z,44.37
2024-01-01T11:21:33.586Z,44.20
2024-01-01T11:24:20.793Z,43.73
2024-01-01T11:26:51.824Z,43.78
2024-01-01T11:29:29.832Z,43.61
2024-01-01T11:32:05.997Z,43.62
2024-01-01T11:34:46.789Z,43.87
2024-01-01T11:37:22.340Z,43.98
2024-01-01T11:40:00.441Z,44.10
2024-01-01T11:42:29.425Z,44.05
2024-01-01T11:45:11.377Z,43.91
2024-01-01T11:47:41.138Z,43.60
2024-01-01T11:50:15.527Z,43.42
2024-01-01T11:52:44.507Z,43.63
2024-01-01T11:55:13.270Z,43.82
2024-01-01T11:57:44.477Z,43.75
2024-01-01T12:00:16.446Z,43.76
2024-01-01T12:02:45.403Z,43.76
2024-01-01T12:05:15.418Z,44.15
2024-01-01T12:07:43.879Z,43.84
2024-01-01T12:10:19.816Z,43.98
2024-01-01T12:12:49.387Z,43.87
2024-01-01T12:15:20.764Z,44.07
2024-01-01T12:17:51.462Z,44.24
2024-01-01T12:20:24.219Z,44.47
2024-01-01T12:22:54.230Z,44.31
2024-01-01T12:25:25.261Z,44.30
2024-01-01T12:28:04.848Z,44.52
2024-01-01T12:30:34.270Z,44.44
2024-01-01T12:33:03.979Z,44.52
2024-01-01T12:35:34.363Z,44.64
2024-01-01T12:38:02.904Z,44.83
2024-01-01T12:40:31.733Z,45.07
2024-01-01T12:43:00.646Z,45.37
2024-01-01T12:45:31.597Z,45.17
2024-01-01T12:48:01.393Z,45.27
2024-01-01T12:50:30.493Z,45.00
2024-01-01T12:53:04.152Z,45.29
2024-01-01T12:55:33.040Z,45.56
2024-01-01T12:58:01.501Z,45.55
2024-01-01T13:00:30.135Z,45.30
2024-01-01T13:02:58.628Z,45.23
2024-01-01T13:05:27.539Z,45.35
2024-01-01T13:07:57.436Z,45.21
2024-01-01T13:10:27.276Z,45.15
2024-01-01T13:12:55.804Z,45.17
2024-01-01T13:15:24.493Z,45.21
2024-01-01T13:17:53.157Z,44.96
2024-01-01T13:20:22.918Z,45.09
2024-01-01T13:22:51.624Z,44.97
2024-01-01T13:25:21.295Z,45.13
2024-01-01T13:27:52.459Z,44.72
2024-01-01T13:30:21.093Z,44.17
2024-01-01T13:32:52.157Z,44.31
2024-01-01T13:35:21.347Z,44.35
2024-01-01T13:37:49.746Z,44.27
2024-01-01T13:40:18.348Z,44.11
2024-01-01T13:42:46.861Z,44.30
2024-01-01T13:45:18.987Z,44.38
2024-01-01T13:47:48.702Z,44.30
2024-01-01T13:50:17.712Z,44.25
2024-01-01T13:52:46.930Z,44.49
2024-01-01T13:55:17.928Z,44.61
2024-01-01T13:57:46.446Z,44.64
2024-01-01T14:00:18.101Z,44.75
2024-01-01T14:02:46.763Z,44.84
2024-01-01T14:05:15.320Z,44.70
2024-01-01T14:07:46.841Z,45.13
2024-01-01T14:10:16.983Z,45.30
2024-01-01T14:12:46.082Z,45.35
2024-01-01T14:15:19.048Z,45.19
2024-01-01T14:17:47.606Z,45.13
2024-01-01T14:20:16.303Z,44.98
2024-01-01T14:22:45.234Z,44.91
2024-01-01T14:25:16.742Z,44.95
2024-01-01T14:27:46.257Z,44.85
2024-01-01T14:30:17.612Z,44.74
2024-01-01T14:32:46.249Z,44.80
2024-01-01T14:35:17.175Z,44.42
2024-01-01T14:37:45.838Z,44.52
2024-01-01T14:40:16.801Z,44.40
2024-01-01T14:42:45.616Z,44.16
2024-01-01T14:45:14.497Z,44.01
2024-01-01T14:47:44.659Z,44.20
2024-01-01T14:50:13.677Z,44.24
2024-01-01T14:52:43.696Z,44.36
2024-01-01T14:55:12.217Z,44.25
2024-01-01T14:57:40.767Z,44.12
2024-01-01T15:00:12.101Z,44.06
2024-01-01T15:02:41.033Z,43.88
2024-01-01T15:05:10.986Z,44.19
2024-01-01T15:07:39.573Z,44.22
2024-01-01T15:10:10.758Z,44.19
2024-01-01T15:12:39.458Z,43.93
2024-01-01T15:15:08.335Z,44.03
2024-01-01T15:17:37.082Z,43.89
2024-01-01T15:20:06.473Z,43.87
2024-01-01T15:22:36.395Z,43.86
2024-01-01T15:25:05.204Z,43.82
2024-01-01T15:27:33.684Z,44.01
2024-01-01T15:30:02.207Z,43.81
2024-01-01T15:32:30.790Z,43.65
2024-01-01T15:34:59.366Z,43.83
2024-01-01T15:37:27.922Z,43.88
2024-01-01T15:40:02.035Z,43.98
2024-01-01T15:42:30.758Z,44.01
2024-01-01T15:44:59.696Z,44.01
2024-01-01T15:47:28.191Z,44.15
2024-01-01T15:49:57.101Z,44.38
2024-01-01T15:52:30.287Z,44.37
2024-01-01T15:55:00.418Z,44.39
2024-01-01T15:57:29.665Z,44.53
2024-01-01T15:59:58.461Z,44.48
2024-01-01T16:02:27.354Z,44.65
2024-01-01T16:04:57.320Z,44.76
2024-01-01T16:07:25.814Z,44.85
2024-01-01T16:09:54.815Z,44.90
2024-01-01T16:12:26.719Z,44.94
2024-01-01T16:14:55.467Z,45.02
2024-01-01T16:17:24.326Z,44.93
2024-01-01T16:19:52.970Z,45.02
2024-01-01T16:22:21.617Z,45.04
2024-01-01T16:24:51.225Z,45.10
2024-01-01T16:27:19.683Z,45.11
2024-01-01T16:29:52.389Z,45.20
2024-01-01T16:32:20.950Z,45.26
2024-01-01T16:34:49.897Z,45.19
2024-01-01T16:37:18.985Z,45.31
2024-01-01T16:39:47.537Z,45.44
2024-01-01T16:42:16.112Z,45.52
2024-01-01T16:44:45.554Z,45.50
2024-01-01T16:47:15.936Z,45.66
2024-01-01T16:49:44.660Z,45.70
2024-01-01T16:52:13.141Z,45.70
2024-01-01T16:54:47.233Z,45.66
2024-01-01T16:57:15.747Z,45.71
2024-01-01T16:59:44.396Z,45.79
2024-01-01T17:02:14.433Z,45.77
2024-01-01T17:04:43.161Z,45.94
2024-01-01T17:07:12.189Z,45.88
2024-01-01T17:09:40.767Z,45.83
2024-01-01T17:12:09.381Z,45.94
2024-01-01T17:14:37.768Z,46.01
2024-01-01T17:17:06.607Z,45.96
2024-01-01T17:19:36.873Z,46.05
2024-01-01T17:22:05.866Z,46.03
2024-01-01T17:24:40.344Z,46.04
2024-01-01T17:27:12.978Z,46.07
2024-01-01T17:29:42.263Z,46.11
2024-01-01T17:32:11.019Z,46.17
2024-01-01T17:34:53.072Z,46.23
2024-01-01T17:37:22.049Z,46.21
2024-01-01T17:39:50.874Z,46.25
2024-01-01T17:42:20.239Z,46.37
2024-01-01T17:44:50.685Z,46.34
2024-01-01T17:47:19.173Z,46.33
2024-01-01T17:49:49.250Z,46.42
2024-01-01T17:52:18.662Z,46.49
2024-01-01T17:54:48.577Z,46.43
2024-01-01T17:57:17.141Z,46.54
2024-01-01T17:59:45.735Z,46.57
2024-01-01T18:02:15.173Z,46.61
2024-01-01T18:04:45.747Z,46.61
2024-01-01T18:07:15.881Z,46.68
2024-01-01T18:09:44.379Z,46.68
2024-01-01T18:12:12.780Z,46.82
2024-01-01T18:14:41.300Z,46.77
2024-01-01T18:17:09.953Z,46.80
2024-01-01T18:19:38.341Z,46.85
2024-01-01T18:22:07.063Z,47.00
2024-01-01T18:24:39.836Z,46.94
2024-01-01T18:27:08.299Z,47.02
2024-01-01T18:29:36.737Z,46.98
2024-01-01T18:32:05.935Z,47.06
2024-01-01T18:34:35.780Z,47.07
2024-01-01T18:37:04.539Z,47.11
2024-01-01T18:39:33.044Z,47.09
2024-01-01T18:42:03.125Z,47.20
2024-01-01T18:44:31.858Z,47.18
2024-01-01T18:47:00.695Z,47.21
2024-01-01T18:49:32.310Z,47.14
2024-01-01T18:52:00.845Z,47.20
2024-01-01T18:54:29.487Z,47.09
2024-01-01T18:56:57.976Z,47.21
2024-01-01T18:59:27.877Z,47.26
2024-01-01T19:01:56.547Z,47.31
2024-01-01T19:04:25.233Z,47.20
2024-01-01T19:06:53.797Z,47.24
2024-01-01T19:09:22.293Z,47.33
2024-01-01T19:11:50.816Z,47.29
2024-01-01T19:14:19.546Z,47.30
2024-01-01T19:16:50.001Z,47.47
2024-01-01T19:19:18.552Z,47.41
2024-01-01T19:21:47.973Z,47.55
2024-01-01T19:24:17.200Z,47.72
2024-01-01T19:26:47.703Z,47.50
2024-01-01T19:29:16.664Z,47.72
2024-01-01T19:31:46.558Z,47.76
2024-01-01T19:34:17.045Z,47.78
2024-01-01T19:36:45.524Z,47.83
2024-01-01T19:39:16.109Z,47.94
2024-01-01T19:41:48.530Z,48.05
2024-01-01T19:44:17.621Z,47.95
2024-01-01T19:46:46.276Z,48.11
2024-01-01T19:49:16.353Z,48.10
2024-01-01T19:51:44.869Z,48.18
2024-01-01T19:54:13.718Z,48.11
2024-01-01T19:56:42.242Z,48.19
2024-01-01T19:59:10.939Z,48.30
2024-01-01T20:01:44.583Z,48.40
2024-01-01T20:04:14.362Z,48.52
2024-01-01T20:06:46.008Z,48.46
2024-01-01T20:09:15.207Z,48.50
2024-01-01T20:11:43.755Z,48.56
2024-01-01T20:14:13.028Z,48.67
2024-01-01T20:16:42.249Z,48.68
2024-01-01T20:19:13.368Z,48.67
2024-01-01T20:21:42.140Z,48.65
2024-01-01T20:24:12.982Z,48.76
2024-01-01T20:26:43.216Z,48.71
2024-01-01T20:29:11.723Z,48.73
2024-01-01T20:31:49.389Z,48.89
2024-01-01T20:34:18.331Z,48.77
2024-01-01T20:36:46.770Z,48.87
2024-01-01T20:39:16.639Z,48.90
2024-01-01T20:41:45.576Z,48.83
2024-01-01T20:44:14.124Z,48.79
2024-01-01T20:46:43.626Z,48.85
2024-01-01T20:49:14.033Z,48.81
2024-01-01T20:51:45.277Z,48.74
2024-01-01T20:54:15.318Z,48.90
2024-01-01T20:56:46.004Z,48.79
2024-01-01T20:59:15.133Z,48.79
2024-01-01T21:01:43.729Z,49.05
2024-01-01T21:04:12.490Z,48.84
2024-01-01T21:06:45.973Z,48.82
2024-01-01T21:09:15.896Z,48.93
2024-01-01T21:11:44.737Z,48.72
2024-01-01T21:14:13.283Z,48.79
2024-01-01T21:16:41.736Z,48.75
2024-01-01T21:19:11.447Z,48.76
2024-01-01T21:21:42.414Z,48.89
2024-01-01T21:24:11.096Z,48.71
2024-01-01T21:26:41.093Z,48.71
2024-01-01T21:29:10.853Z,48.64
2024-01-01T21:31:39.750Z,48.67
2024-01-01T21:34:08.270Z,48.56
2024-01-01T21:36:36.987Z,48.53
2024-01-01T21:39:05.575Z,48.57
2024-01-01T21:41:35.509Z,48.66
2024-01-01T21:44:05.738Z,48.50
2024-01-01T21:46:34.437Z,48.62
2024-01-01T21:49:07.218Z,48.60
2024-01-01T21:51:36.217Z,48.73
2024-01-01T21:54:04.945Z,48.66
2024-01-01T21:56:33.817Z,48.72
2024-01-01T21:59:04.045Z,48.89
2024-01-01T22:01:35.277Z,48.95
2024-01-01T22:04:04.459Z,48.92
2024-01-01T22:06:34.959Z,49.25
2024-01-01T22:09:03.905Z,49.38
2024-01-01T22:11:32.442Z,49.27
2024-01-01T22:14:01.131Z,49.29
2024-01-01T22:16:29.615Z,49.37
2024-01-01T22:18:58.509Z,49.43
2024-01-01T22:21:27.302Z,49.20
2024-01-01T22:23:56.166Z,49.19
2024-01-01T22:26:24.978Z,49.42
2024-01-01T22:28:53.452Z,49.36
2024-01-01T22:31:21.890Z,49.30
2024-01-01T22:33:50.333Z,49.51
2024-01-01T22:36:20.506Z,49.49
2024-01-01T22:38:49.266Z,49.31
2024-01-01T22:41:17.963Z,49.42
2024-01-01T22:43:46.478Z,49.55
2024-01-01T22:46:15.143Z,49.42
2024-01-01T22:48:43.819Z,49.32
2024-01-01T22:51:12.371Z,49.45
2024-01-01T22:53:42.935Z,49.36
2024-01-01T22:56:11.478Z,49.50
2024-01-01T22:58:40.429Z,49.45
2024-01-01T23:01:09.277Z,49.42
2024-01-01T23:03:37.861Z,49.23
2024-01-01T23:06:11.665Z,49.34
2024-01-01T23:08:42.489Z,49.36
2024-01-01T23:11:10.999Z,49.32
2024-01-01T23:13:39.832Z,49.38
2024-01-01T23:16:08.698Z,49.23
2024-01-01T23:18:37.220Z,49.34
2024-01-01T23:21:05.921Z,49.15
2024-01-01T23:23:34.615Z,49.35
2024-01-01T23:26:05.105Z,49.41
2024-01-01T23:28:35.126Z,49.43
2024-01-01T23:31:03.770Z,49.53
2024-01-01T23:33:32.445Z,49.45
2024-01-01T23:36:01.144Z,49.58
2024-01-01T23:38:29.785Z,49.61
2024-01-01T23:40:58.304Z,49.69
2024-01-01T23:43:28.185Z,49.70
2024-01-01T23:45:56.655Z,49.78
2024-01-01T23:48:25.290Z,49.66
2024-01-01T23:50:53.994Z,49.69
2024-01-01T23:53:22.461Z,49.72
2024-01-01T23:55:50.871Z,49.81
2024-01-01T23:58:22.656Z,49.70
